Northfork, WV (24868)

6:07 AM EST on February 07, 2016 (GMT -0500)
185 Beeson rd | | Change Station
CLOSE
Current Station
Personal Weather Station
Location: Lashmeet, WV
Elevation: 2513 ft
Nearby Weather Stations

Elev 2513 ft 37.42 °N, 81.20 °W | Updated 1 second ago

Clear
Clear
22.0 °F
Feels Like 22 °F
N
0.0
Wind Variable Wind from West
Gusts 0.0 mph

Today
High -- | Low -- °F
--% Chance of Precip.
Yesterday
High -- | Low -- °F
Precip. -- in
Pressure 30.16 in
Visibility 10.0 miles
Clouds Clear
Windchill 22 °F
Dew Point 21 °F
Humidity 96%
Rainfall 0.00 in
Snow Depth Not available.
7:23 AM 5:56 PM
Waning Crescent, 2% visible
METAR KBLF 071052Z AUTO 28006KT 10SM CLR M02/M09 A3011 RMK AO2 SLP213 T10221089 TSNO
Pressure 30.16 in
Visibility 10.0 miles
Clouds Clear
Windchill 22 °F
Dew Point 21 °F
Humidity 96%
Rainfall 0.00 in
Snow Depth Not available.
7:23 AM 5:56 PM
Waning Crescent, 2% visible
METAR KBLF 071052Z AUTO 28006KT 10SM CLR M02/M09 A3011 RMK AO2 SLP213 T10221089 TSNO

10-Day Weather Forecast

Almanac

Astronomy

Feb. 07, 2016 Rise Set
Actual Time
Civil Twilight
Nautical Twilight
Astronomical Twilight
Moon
Length of Visible Light
Length of Day
Tomorrow will be .
, % of the Moon is Illuminated

Today's Extremes

State Highs State Lows

Community

WunderPhotos

Upload Photos

1,891,170 photos uploaded!

WunderBlog® & News

Nearby

Air Quality

  Air Quality AQ Index Pollutant
Not available.

Snow Depth

Station Depth Elevation

Earthquake Activity

City Distance Mag. Time & Date
Minimum magnitude displayed is 2.5.

Coastal Water Temperatures

Place Temperature

Stations

Nearby Weather Stations

Station Location Temp. Windchill Dew Point Humidity Wind Precip. Elev Updated Type
                   

Watches & Warnings

There are currently no watches in effect.